createdAt,value
2022-10-26T00:00:33.256Z,11.69
2022-10-26T00:03:57.159Z,11.73
2022-10-26T00:06:59.277Z,11.72
2022-10-26T00:10:01.808Z,11.67
2022-10-26T00:13:05.342Z,11.71
2022-10-26T00:16:13.246Z,11.71
2022-10-26T00:19:15.245Z,11.74
2022-10-26T00:22:17.482Z,11.82
2022-10-26T00:25:19.421Z,11.85
2022-10-26T00:28:21.742Z,11.83
2022-10-26T00:31:24.112Z,11.81
2022-10-26T00:34:26.380Z,11.85
2022-10-26T00:37:28.389Z,11.79
2022-10-26T00:40:30.645Z,11.79
2022-10-26T00:43:36.308Z,11.79
2022-10-26T00:46:39.027Z,11.79
2022-10-26T00:49:41.837Z,11.84
2022-10-26T00:52:44.274Z,11.90
2022-10-26T00:55:49.030Z,11.91
2022-10-26T00:58:51.914Z,11.97
2022-10-26T01:01:53.911Z,11.96
2022-10-26T01:04:56.760Z,12.03
2022-10-26T01:07:58.945Z,11.96
2022-10-26T01:11:02.115Z,11.98
2022-10-26T01:14:06.852Z,12.04
2022-10-26T01:17:30.831Z,12.03
2022-10-26T01:21:10.168Z,12.05
2022-10-26T01:24:31.933Z,12.00
2022-10-26T01:27:39.556Z,11.99
2022-10-26T01:30:44.581Z,12.09
2022-10-26T01:34:09.281Z,12.11
2022-10-26T01:37:15.435Z,12.11
2022-10-26T01:40:34.557Z,12.12
2022-10-26T01:43:40.633Z,12.13
2022-10-26T01:46:45.442Z,12.16
2022-10-26T01:49:51.373Z,12.19
2022-10-26T01:52:54.351Z,12.21
2022-10-26T01:55:56.718Z,12.20
2022-10-26T01:59:10.709Z,12.20
2022-10-26T02:02:44.169Z,12.30
2022-10-26T02:05:56.732Z,12.34
2022-10-26T02:09:09.768Z,12.41
2022-10-26T02:12:27.426Z,12.32
2022-10-26T02:15:54.317Z,12.25
2022-10-26T02:19:03.468Z,12.26
2022-10-26T02:22:18.247Z,12.30
2022-10-26T02:25:23.960Z,12.36
2022-10-26T02:28:31.414Z,12.42
2022-10-26T02:31:34.076Z,12.45
2022-10-26T02:34:38.112Z,12.50
2022-10-26T02:37:41.046Z,12.55
2022-10-26T02:40:43.933Z,12.53
2022-10-26T02:43:52.591Z,12.56
2022-10-26T02:46:55.805Z,12.53
2022-10-26T02:49:58.087Z,12.62
2022-10-26T02:53:23.166Z,12.61
2022-10-26T02:56:52.432Z,12.66
2022-10-26T02:59:55.344Z,12.58
2022-10-26T03:02:58.642Z,12.56
2022-10-26T03:06:00.897Z,12.60
2022-10-26T03:09:03.837Z,12.50
2022-10-26T03:12:06.126Z,12.51
2022-10-26T03:15:08.735Z,12.58
2022-10-26T03:18:10.948Z,12.64
2022-10-26T03:21:12.967Z,12.52
2022-10-26T03:24:15.231Z,12.60
2022-10-26T03:27:17.417Z,12.55
2022-10-26T03:30:19.653Z,12.59
2022-10-26T03:33:25.556Z,12.60
2022-10-26T03:36:29.500Z,12.53
2022-10-26T03:39:31.579Z,12.40
2022-10-26T03:42:36.103Z,12.29
2022-10-26T03:45:38.312Z,12.40
2022-10-26T03:48:40.566Z,12.31
2022-10-26T03:51:42.604Z,12.39
2022-10-26T03:54:44.835Z,12.44
2022-10-26T03:57:46.949Z,12.47
2022-10-26T04:00:49.444Z,12.56
2022-10-26T04:03:51.580Z,12.61
2022-10-26T04:06:53.996Z,12.64
2022-10-26T04:09:56.008Z,12.66
2022-10-26T04:13:00.315Z,12.62
2022-10-26T04:16:02.296Z,12.50
2022-10-26T04:19:04.533Z,12.52
2022-10-26T04:22:06.573Z,12.59
2022-10-26T04:25:10.557Z,12.60
2022-10-26T04:28:13.807Z,12.66
2022-10-26T04:31:16.131Z,12.60
2022-10-26T04:34:18.174Z,12.61
2022-10-26T04:37:21.038Z,12.76
2022-10-26T04:40:22.962Z,12.80
2022-10-26T04:43:25.138Z,12.83
2022-10-26T04:46:27.302Z,12.81
2022-10-26T04:49:29.427Z,12.83
2022-10-26T04:52:31.421Z,12.82
2022-10-26T04:55:34.476Z,12.82
2022-10-26T04:58:36.493Z,12.59
2022-10-26T05:01:38.904Z,12.71
2022-10-26T05:04:41.038Z,12.59
2022-10-26T05:07:43.311Z,12.64
2022-10-26T05:10:50.118Z,12.73
2022-10-26T05:13:52.407Z,12.61
2022-10-26T05:16:55.912Z,12.66
2022-10-26T05:20:00.697Z,12.74
2022-10-26T05:23:12.218Z,12.79
2022-10-26T05:26:14.639Z,12.83
2022-10-26T05:29:16.707Z,12.81
2022-10-26T05:32:19.050Z,12.88
2022-10-26T05:35:21.166Z,12.81
2022-10-26T05:38:23.513Z,12.75
2022-10-26T05:41:25.718Z,12.78
2022-10-26T05:44:28.021Z,12.84
2022-10-26T05:47:30.097Z,12.60
2022-10-26T05:50:32.486Z,12.88
2022-10-26T05:53:34.519Z,12.85
2022-10-26T05:56:39.188Z,12.82
2022-10-26T05:59:41.376Z,12.83
2022-10-26T06:03:05.329Z,12.84
2022-10-26T06:06:07.980Z,12.85
2022-10-26T06:09:12.508Z,12.86
2022-10-26T06:12:18.419Z,12.87
2022-10-26T06:15:22.667Z,12.90
2022-10-26T06:18:35.204Z,12.80
2022-10-26T06:21:46.592Z,12.81
2022-10-26T06:25:13.351Z,12.90
2022-10-26T06:31:34.337Z,12.68
2022-10-26T06:34:42.836Z,12.69
2022-10-26T06:37:45.906Z,12.67
2022-10-26T06:40:53.250Z,12.71
2022-10-26T06:43:55.559Z,12.74
2022-10-26T06:47:07.661Z,12.72
2022-10-26T06:50:33.452Z,12.84
2022-10-26T06:53:54.422Z,12.66
2022-10-26T06:56:56.701Z,12.70
2022-10-26T07:00:03.147Z,12.69
2022-10-26T07:03:05.775Z,12.85
2022-10-26T07:06:09.355Z,12.84
2022-10-26T07:09:11.349Z,12.86
2022-10-26T07:12:13.818Z,12.77
2022-10-26T07:15:15.814Z,12.83
2022-10-26T07:18:18.070Z,12.79
2022-10-26T07:21:20.120Z,12.81
2022-10-26T07:24:23.505Z,12.92
2022-10-26T07:27:25.536Z,12.79
2022-10-26T07:30:29.122Z,12.75
2022-10-26T07:33:31.361Z,12.85
2022-10-26T07:36:36.624Z,12.85
2022-10-26T07:39:38.698Z,12.95
2022-10-26T07:42:43.066Z,12.91
2022-10-26T07:45:50.703Z,12.78
2022-10-26T07:48:53.182Z,12.71
2022-10-26T07:51:55.278Z,12.62
2022-10-26T07:54:57.454Z,12.74
2022-10-26T07:57:59.936Z,12.81
2022-10-26T08:01:07.723Z,12.86
2022-10-26T08:04:10.316Z,13.03
2022-10-26T08:07:12.688Z,12.98
2022-10-26T08:10:15.794Z,12.99
2022-10-26T08:13:18.226Z,13.02
2022-10-26T08:16:20.266Z,12.97
2022-10-26T08:19:23.004Z,13.10
2022-10-26T08:22:25.137Z,13.04
2022-10-26T08:25:27.586Z,12.97
2022-10-26T08:28:30.473Z,12.95
2022-10-26T08:31:33.037Z,12.90
2022-10-26T08:34:35.167Z,12.82
2022-10-26T08:37:37.459Z,12.87
2022-10-26T08:40:41.769Z,12.80
2022-10-26T08:43:48.943Z,12.73
2022-10-26T08:46:55.977Z,12.73
2022-10-26T08:50:11.573Z,12.81
2022-10-26T08:53:17.263Z,12.78
2022-10-26T08:56:38.423Z,12.77
2022-10-26T09:00:03.858Z,12.53
2022-10-26T09:03:14.468Z,12.65
2022-10-26T09:06:22.720Z,12.67
2022-10-26T09:09:39.624Z,12.66
2022-10-26T09:13:10.617Z,12.53
2022-10-26T09:16:28.047Z,12.37
2022-10-26T09:19:56.092Z,12.57
2022-10-26T09:23:26.266Z,12.78
2022-10-26T09:26:57.376Z,12.83
2022-10-26T09:30:15.043Z,12.79
2022-10-26T09:33:20.823Z,12.78
2022-10-26T09:36:23.266Z,12.68
2022-10-26T09:39:42.428Z,12.65
2022-10-26T09:42:58.853Z,12.62
2022-10-26T09:46:01.133Z,12.53
2022-10-26T09:49:07.062Z,12.71
2022-10-26T09:52:09.118Z,12.66
2022-10-26T09:55:12.564Z,12.79
2022-10-26T09:58:21.428Z,12.71
2022-10-26T10:01:38.282Z,12.67
2022-10-26T10:04:47.969Z,12.56
2022-10-26T10:07:50.277Z,12.65
2022-10-26T10:11:04.763Z,12.66
2022-10-26T10:14:09.093Z,12.71
2022-10-26T10:17:22.019Z,12.80
2022-10-26T10:20:34.132Z,12.83
2022-10-26T10:23:48.122Z,12.84
2022-10-26T10:27:17.300Z,13.02
2022-10-26T10:30:28.822Z,12.90
2022-10-26T10:33:41.261Z,13.06
2022-10-26T10:36:43.377Z,13.06
2022-10-26T10:39:45.814Z,13.20
2022-10-26T10:42:49.241Z,13.26
2022-10-26T10:45:55.813Z,13.25
2022-10-26T10:49:04.450Z,13.38
2022-10-26T10:52:06.807Z,13.47
2022-10-26T10:55:14.733Z,13.48
2022-10-26T10:58:54.358Z,13.55
2022-10-26T11:02:21.312Z,13.59
2022-10-26T11:05:27.135Z,13.56
2022-10-26T11:08:56.192Z,13.58
2022-10-26T11:12:02.178Z,13.64
2022-10-26T11:15:11.877Z,13.58
2022-10-26T11:18:19.567Z,13.61
2022-10-26T11:21:29.846Z,13.52
2022-10-26T11:24:39.813Z,13.60
2022-10-26T11:27:55.113Z,13.64
2022-10-26T11:31:01.304Z,13.60
2022-10-26T11:34:08.930Z,13.60
2022-10-26T11:37:30.153Z,13.63
2022-10-26T11:41:01.897Z,13.79
2022-10-26T11:44:23.028Z,13.83
2022-10-26T11:47:34.811Z,13.80
2022-10-26T11:50:41.581Z,13.91
2022-10-26T11:53:45.764Z,13.71
2022-10-26T11:56:50.261Z,13.77
2022-10-26T11:59:56.221Z,13.92
2022-10-26T12:03:04.321Z,13.87
2022-10-26T12:06:06.706Z,14.01
2022-10-26T12:09:34.833Z,13.96
2022-10-26T12:13:00.025Z,14.12
2022-10-26T12:16:13.884Z,14.04
2022-10-26T12:22:32.880Z,13.84
2022-10-26T12:25:34.979Z,13.70
2022-10-26T12:28:37.687Z,13.87
2022-10-26T12:31:39.733Z,13.85
2022-10-26T12:34:57.409Z,13.81
2022-10-26T12:38:01.039Z,13.83
2022-10-26T12:41:10.798Z,13.88
2022-10-26T12:44:51.704Z,13.80
2022-10-26T12:47:53.897Z,13.65
2022-10-26T12:50:55.934Z,13.78
2022-10-26T12:54:02.261Z,13.92
2022-10-26T12:57:19.433Z,13.93
2022-10-26T13:00:26.318Z,14.05
2022-10-26T13:03:49.699Z,14.12
2022-10-26T13:06:58.814Z,14.17
2022-10-26T13:10:12.257Z,14.26
2022-10-26T13:13:22.852Z,14.35
2022-10-26T13:16:27.058Z,14.28
2022-10-26T13:19:48.661Z,14.32
2022-10-26T13:22:51.086Z,14.29
2022-10-26T13:26:12.925Z,14.31
2022-10-26T13:29:16.125Z,14.32
2022-10-26T13:32:18.815Z,14.51
2022-10-26T13:35:22.849Z,14.54
2022-10-26T13:38:31.282Z,14.53
2022-10-26T13:41:37.227Z,14.57
2022-10-26T13:45:15.477Z,14.54
2022-10-26T13:48:27.245Z,14.68
2022-10-26T13:51:43.670Z,14.68
2022-10-26T13:54:57.393Z,14.63
2022-10-26T13:58:05.524Z,14.60
2022-10-26T14:01:11.636Z,14.60
2022-10-26T14:04:19.109Z,14.47
2022-10-26T14:07:34.493Z,14.47
2022-10-26T14:10:41.977Z,14.40
2022-10-26T14:13:44.625Z,14.14
2022-10-26T14:16:47.701Z,14.19
2022-10-26T14:19:50.369Z,14.08
2022-10-26T14:22:52.667Z,14.13
2022-10-26T14:25:59.056Z,14.21
2022-10-26T14:29:02.151Z,14.26
2022-10-26T14:32:20.701Z,14.15
2022-10-26T14:35:32.847Z,14.18
2022-10-26T14:38:42.787Z,14.09
2022-10-26T14:41:45.232Z,13.97
2022-10-26T14:44:47.441Z,13.89
2022-10-26T14:47:50.547Z,13.91
2022-10-26T14:51:18.722Z,13.74
2022-10-26T14:54:23.097Z,13.83
2022-10-26T14:57:36.328Z,13.71
2022-10-26T15:00:39.077Z,13.72
2022-10-26T15:03:44.646Z,13.66
2022-10-26T15:06:47.138Z,13.68
2022-10-26T15:09:53.616Z,13.68
2022-10-26T15:12:55.910Z,13.72
2022-10-26T15:16:08.468Z,13.65
2022-10-26T15:19:12.125Z,13.57
2022-10-26T15:22:32.093Z,13.60
2022-10-26T15:25:34.972Z,13.49
2022-10-26T15:28:36.999Z,13.49
2022-10-26T15:31:39.528Z,13.40
2022-10-26T15:34:41.596Z,13.42
2022-10-26T15:37:44.047Z,13.34
2022-10-26T15:40:46.313Z,13.24
2022-10-26T15:43:49.706Z,13.18
2022-10-26T15:46:51.918Z,13.10
2022-10-26T15:49:54.511Z,12.99
2022-10-26T15:53:00.841Z,12.70
2022-10-26T15:56:05.060Z,12.60
2022-10-26T15:59:18.910Z,12.51
2022-10-26T16:02:21.334Z,12.41
2022-10-26T16:05:23.675Z,12.30
2022-10-26T16:08:30.719Z,12.16
2022-10-26T16:11:33.159Z,12.07
2022-10-26T16:14:53.341Z,11.96
2022-10-26T16:17:57.923Z,11.89
2022-10-26T16:21:00.738Z,11.84
2022-10-26T16:24:02.995Z,11.74
2022-10-26T16:27:05.555Z,11.65
2022-10-26T16:30:08.491Z,11.46
2022-10-26T16:33:11.103Z,11.39
2022-10-26T16:36:14.370Z,11.36
2022-10-26T16:39:16.829Z,11.27
2022-10-26T16:42:18.992Z,11.21
2022-10-26T16:45:21.538Z,11.14
2022-10-26T16:48:23.760Z,11.07
2022-10-26T16:51:28.044Z,11.00
2022-10-26T16:54:31.262Z,10.89
2022-10-26T16:57:35.680Z,10.83
2022-10-26T17:00:38.484Z,10.69
2022-10-26T17:03:40.997Z,10.59
2022-10-26T17:06:43.552Z,10.52
2022-10-26T17:10:08.401Z,10.45
2022-10-26T17:13:23.453Z,10.35
2022-10-26T17:16:26.342Z,10.25
2022-10-26T17:19:39.394Z,10.18
2022-10-26T17:22:51.052Z,10.08
2022-10-26T17:25:54.245Z,10.02
2022-10-26T17:29:01.906Z,9.90
2022-10-26T17:32:04.165Z,9.87
2022-10-26T17:35:06.907Z,9.83
2022-10-26T17:38:09.152Z,9.79
2022-10-26T17:41:16.748Z,9.72
2022-10-26T17:44:18.826Z,9.66
2022-10-26T17:47:21.251Z,9.58
2022-10-26T17:50:23.306Z,9.51
2022-10-26T17:53:26.042Z,9.43
2022-10-26T17:56:30.513Z,9.37
2022-10-26T17:59:33.000Z,9.33
2022-10-26T18:02:38.933Z,9.30
2022-10-26T18:05:41.335Z,9.23
2022-10-26T18:08:45.391Z,9.22
2022-10-26T18:11:49.596Z,9.21
2022-10-26T18:14:54.237Z,9.15
2022-10-26T18:17:59.840Z,9.08
2022-10-26T18:21:07.975Z,9.03
2022-10-26T18:24:10.858Z,9.11
2022-10-26T18:27:13.347Z,9.09
2022-10-26T18:30:15.693Z,9.07
2022-10-26T18:33:17.787Z,9.06
2022-10-26T18:36:20.245Z,9.03
2022-10-26T18:39:22.390Z,9.02
2022-10-26T18:42:24.751Z,8.99
2022-10-26T18:45:26.786Z,8.88
2022-10-26T18:48:29.081Z,8.90
2022-10-26T18:51:33.969Z,8.82
2022-10-26T18:54:36.841Z,8.75
2022-10-26T18:57:39.007Z,8.71
2022-10-26T19:00:43.502Z,8.74
2022-10-26T19:03:46.621Z,8.71
2022-10-26T19:06:50.097Z,8.70
2022-10-26T19:09:52.099Z,8.64
2022-10-26T19:12:54.484Z,8.58
2022-10-26T19:16:21.923Z,8.58
2022-10-26T19:19:36.930Z,8.54
2022-10-26T19:22:39.552Z,8.42
2022-10-26T19:25:41.873Z,8.34
2022-10-26T19:28:44.792Z,8.30
2022-10-26T19:31:48.353Z,8.29
2022-10-26T19:34:51.241Z,8.17
2022-10-26T19:37:53.500Z,8.11
2022-10-26T19:41:01.780Z,8.18
2022-10-26T19:44:04.454Z,8.20
2022-10-26T19:47:06.805Z,8.20
2022-10-26T19:50:09.108Z,8.23
2022-10-26T19:53:11.143Z,8.18
2022-10-26T19:56:13.950Z,8.23
2022-10-26T19:59:16.219Z,8.20
2022-10-26T20:02:18.636Z,8.13
2022-10-26T20:05:21.202Z,8.15
2022-10-26T20:08:24.071Z,8.07
2022-10-26T20:11:26.367Z,8.08
2022-10-26T20:14:28.596Z,8.05
2022-10-26T20:17:30.817Z,7.92
2022-10-26T20:20:38.009Z,7.83
2022-10-26T20:23:40.349Z,7.79
2022-10-26T20:26:42.782Z,7.80
2022-10-26T20:29:45.660Z,7.78
2022-10-26T20:32:47.900Z,7.74
2022-10-26T20:35:49.879Z,7.60
2022-10-26T20:38:52.610Z,7.64
2022-10-26T20:41:55.157Z,7.58
2022-10-26T20:45:09.038Z,7.56
2022-10-26T20:48:12.072Z,7.49
2022-10-26T20:51:19.760Z,7.42
2022-10-26T20:54:29.562Z,7.40
2022-10-26T20:57:33.246Z,7.37
2022-10-26T21:00:42.133Z,7.35
2022-10-26T21:03:44.403Z,7.31
2022-10-26T21:06:46.546Z,7.31
2022-10-26T21:09:48.955Z,7.34
2022-10-26T21:12:52.118Z,7.24
2022-10-26T21:15:54.612Z,7.17
2022-10-26T21:18:56.666Z,7.13
2022-10-26T21:21:58.949Z,7.11
2022-10-26T21:25:00.977Z,7.07
2022-10-26T21:28:03.995Z,7.06
2022-10-26T21:31:08.021Z,7.07
2022-10-26T21:34:10.301Z,7.11
2022-10-26T21:37:12.358Z,7.09
2022-10-26T21:40:15.116Z,6.98
2022-10-26T21:43:18.907Z,6.95
2022-10-26T21:46:21.602Z,6.87
2022-10-26T21:49:23.628Z,6.90
2022-10-26T21:52:26.297Z,6.89
2022-10-26T21:55:28.263Z,6.80
2022-10-26T21:58:30.994Z,6.80
2022-10-26T22:08:18.087Z,6.67
2022-10-26T22:11:25.210Z,6.59
2022-10-26T22:14:27.704Z,6.37
2022-10-26T22:17:30.435Z,6.36
2022-10-26T22:20:33.317Z,6.48
2022-10-26T22:23:38.786Z,6.54
2022-10-26T22:26:41.358Z,6.58
2022-10-26T22:29:44.013Z,6.58
2022-10-26T22:32:46.476Z,6.56
2022-10-26T22:35:49.263Z,6.57
2022-10-26T22:38:52.499Z,6.53
2022-10-26T22:41:55.188Z,6.49
2022-10-26T22:44:57.568Z,6.31
2022-10-26T22:48:00.405Z,6.34
2022-10-26T22:51:11.531Z,6.43
2022-10-26T22:54:15.206Z,6.44
2022-10-26T22:57:18.438Z,6.37
2022-10-26T23:00:22.081Z,6.40
2022-10-26T23:03:25.079Z,6.40
2022-10-26T23:06:29.948Z,6.42
2022-10-26T23:09:32.321Z,6.41
2022-10-26T23:12:34.921Z,6.33
2022-10-26T23:15:40.225Z,6.29
2022-10-26T23:18:42.769Z,6.23
2022-10-26T23:21:45.214Z,6.21
2022-10-26T23:24:47.744Z,6.25
2022-10-26T23:27:50.164Z,6.31
2022-10-26T23:30:52.738Z,6.30
2022-10-26T23:33:56.200Z,6.26
2022-10-26T23:36:59.003Z,6.29
2022-10-26T23:40:01.719Z,6.25
2022-10-26T23:43:04.645Z,6.29
2022-10-26T23:46:07.390Z,6.23
2022-10-26T23:49:10.110Z,6.24
2022-10-26T23:52:12.815Z,6.18
2022-10-26T23:55:16.605Z,6.20
2022-10-26T23:58:19.746Z,6.13
